createdAt,value
2022-08-08T00:01:06.770Z,73.90
2022-08-08T00:03:48.153Z,74.20
2022-08-08T00:06:28.549Z,74.30
2022-08-08T00:09:03.975Z,74.80
2022-08-08T00:11:47.070Z,74.20
2022-08-08T00:14:54.736Z,74.50
2022-08-08T00:17:23.536Z,74.90
2022-08-08T00:19:55.867Z,74.80
2022-08-08T00:22:26.500Z,74.90
2022-08-08T00:24:57.880Z,75.00
2022-08-08T00:27:34.824Z,75.50
2022-08-08T00:30:05.810Z,75.30
2022-08-08T00:32:36.764Z,75.40
2022-08-08T00:35:24.788Z,75.80
2022-08-08T00:38:01.640Z,75.70
2022-08-08T00:41:11.466Z,76.10
2022-08-08T00:43:58.713Z,76.40
2022-08-08T00:46:57.120Z,76.50
2022-08-08T00:49:42.269Z,76.60
2022-08-08T00:52:38.858Z,76.80
2022-08-08T00:55:16.747Z,77.10
2022-08-08T00:58:12.483Z,77.20
2022-08-08T01:00:50.499Z,77.80
2022-08-08T01:04:02.804Z,77.60
2022-08-08T01:06:44.245Z,77.50
2022-08-08T01:09:36.117Z,77.50
2022-08-08T01:12:29.801Z,77.90
2022-08-08T01:15:26.042Z,77.90
2022-08-08T01:18:25.244Z,77.60
2022-08-08T01:22:03.907Z,77.60
2022-08-08T01:24:35.542Z,77.30
2022-08-08T01:27:16.263Z,77.90
2022-08-08T01:30:03.413Z,77.80
2022-08-08T01:33:01.507Z,78.00
2022-08-08T01:36:01.087Z,77.40
2022-08-08T01:38:51.983Z,77.70
2022-08-08T01:41:25.454Z,77.30
2022-08-08T01:43:59.403Z,77.30
2022-08-08T01:46:47.751Z,77.20
2022-08-08T01:49:37.419Z,77.40
2022-08-08T01:52:42.782Z,78.40
2022-08-08T01:55:45.474Z,78.60
2022-08-08T01:58:11.831Z,78.50
2022-08-08T02:00:48.507Z,77.60
2022-08-08T02:03:54.836Z,78.70
2022-08-08T02:06:33.160Z,78.20
2022-08-08T02:09:17.594Z,78.30
2022-08-08T02:11:52.807Z,78.60
2022-08-08T02:14:31.622Z,78.60
2022-08-08T02:17:03.570Z,78.30
2022-08-08T02:20:08.244Z,78.90
2022-08-08T02:22:34.369Z,78.80
2022-08-08T02:25:32.750Z,79.10
2022-08-08T02:28:12.537Z,79.20
2022-08-08T02:30:58.227Z,79.80
2022-08-08T02:34:00.206Z,79.60
2022-08-08T02:36:38.747Z,79.20
2022-08-08T02:39:42.097Z,79.00
2022-08-08T02:42:42.097Z,80.30
2022-08-08T02:45:18.571Z,79.70
2022-08-08T02:48:16.670Z,79.40
2022-08-08T02:51:11.854Z,80.10
2022-08-08T02:54:04.103Z,80.50
2022-08-08T02:57:05.174Z,80.40
2022-08-08T03:00:27.276Z,80.20
2022-08-08T03:03:13.518Z,80.10
2022-08-08T03:06:02.276Z,80.30
2022-08-08T03:08:51.763Z,80.20
2022-08-08T03:12:01.182Z,80.40
2022-08-08T03:15:57.188Z,80.60
2022-08-08T03:17:39.272Z,80.80
2022-08-08T03:20:10.589Z,81.60
2022-08-08T03:22:44.980Z,82.10
2022-08-08T03:25:18.692Z,82.10
2022-08-08T03:27:56.680Z,82.60
2022-08-08T03:30:25.273Z,82.90
2022-08-08T03:33:56.450Z,83.60
2022-08-08T03:35:58.841Z,83.90
2022-08-08T03:38:55.717Z,84.20
2022-08-08T03:42:03.915Z,84.60
2022-08-08T03:44:03.500Z,83.80
2022-08-08T03:46:32.599Z,85.80
2022-08-08T03:49:28.022Z,84.40
2022-08-08T03:51:52.887Z,85.10
2022-08-08T03:54:41.637Z,85.90
2022-08-08T03:58:31.986Z,86.60
2022-08-08T04:00:07.886Z,86.70
2022-08-08T04:02:47.694Z,86.80
2022-08-08T04:05:27.400Z,86.80
2022-08-08T04:07:56.699Z,87.20
2022-08-08T04:10:32.109Z,86.90
2022-08-08T04:13:00.455Z,88.10
2022-08-08T04:15:30.408Z,87.90
2022-08-08T04:18:06.524Z,87.70
2022-08-08T04:20:37.150Z,88.20
2022-08-08T04:23:07.153Z,87.70
2022-08-08T04:25:38.426Z,87.90
2022-08-08T04:28:36.256Z,88.30
2022-08-08T04:30:55.108Z,88.70
2022-08-08T04:33:26.987Z,88.50
2022-08-08T04:35:56.147Z,89.00
2022-08-08T04:38:24.287Z,89.70
2022-08-08T04:40:54.693Z,90.00
2022-08-08T04:43:31.768Z,90.50
2022-08-08T04:46:10.629Z,90.70
2022-08-08T04:48:38.380Z,90.20
2022-08-08T04:51:06.631Z,90.90
2022-08-08T04:54:36.618Z,91.30
2022-08-08T04:56:25.471Z,91.40
2022-08-08T04:58:53.445Z,91.60
2022-08-08T05:01:21.741Z,91.70
2022-08-08T05:04:10.326Z,91.70
2022-08-08T05:06:39.015Z,91.80
2022-08-08T05:09:07.097Z,91.50
2022-08-08T05:11:39.440Z,92.20
2022-08-08T05:14:08.534Z,91.70
2022-08-08T05:16:54.432Z,91.80
2022-08-08T05:20:12.277Z,92.10
2022-08-08T05:22:17.469Z,92.40
2022-08-08T05:24:48.130Z,92.60
2022-08-08T05:27:17.999Z,93.00
2022-08-08T05:29:50.246Z,92.70
2022-08-08T05:32:24.581Z,92.90
2022-08-08T05:34:55.225Z,92.60
2022-08-08T05:37:39.160Z,92.80
2022-08-08T05:40:12.364Z,93.00
2022-08-08T05:42:45.135Z,92.80
2022-08-08T05:45:30.558Z,92.80
2022-08-08T05:48:01.622Z,92.60
2022-08-08T05:50:36.752Z,92.70
2022-08-08T05:53:54.290Z,92.60
2022-08-08T05:56:11.070Z,92.60
2022-08-08T05:58:57.033Z,92.80
2022-08-08T06:01:56.402Z,92.10
2022-08-08T06:04:23.691Z,92.30
2022-08-08T06:06:53.565Z,92.20
2022-08-08T06:09:59.440Z,91.30
2022-08-08T06:12:18.617Z,90.70
2022-08-08T06:14:59.192Z,91.00
2022-08-08T06:17:51.500Z,91.30
2022-08-08T06:20:16.165Z,91.40
2022-08-08T06:22:44.663Z,91.50
2022-08-08T06:25:18.098Z,91.10
2022-08-08T06:27:48.372Z,90.60
2022-08-08T06:30:28.481Z,90.60
2022-08-08T06:32:57.403Z,89.70
2022-08-08T06:36:04.621Z,90.30
2022-08-08T06:38:16.818Z,90.30
2022-08-08T06:40:48.797Z,89.80
2022-08-08T06:43:33.696Z,90.10
2022-08-08T06:46:03.813Z,89.20
2022-08-08T06:48:31.603Z,89.20
2022-08-08T06:51:07.716Z,87.40
2022-08-08T06:53:39.569Z,89.70
2022-08-08T06:56:08.779Z,89.40
2022-08-08T06:58:36.863Z,87.40
2022-08-08T07:01:52.440Z,87.70
2022-08-08T07:04:37.357Z,87.40
2022-08-08T07:06:51.471Z,85.80
2022-08-08T07:09:21.398Z,85.00
2022-08-08T07:11:51.221Z,83.00
2022-08-08T07:14:21.380Z,83.50
2022-08-08T07:16:55.252Z,81.20
2022-08-08T07:19:30.721Z,81.50
2022-08-08T07:22:04.951Z,83.70
2022-08-08T07:24:36.431Z,81.40
2022-08-08T07:27:11.639Z,80.00
2022-08-08T07:30:02.560Z,81.10
2022-08-08T07:32:34.551Z,79.90
2022-08-08T07:35:06.294Z,80.40
2022-08-08T07:37:56.283Z,80.10
2022-08-08T07:40:29.909Z,79.10
2022-08-08T07:43:02.308Z,80.20
2022-08-08T07:45:34.884Z,78.70
2022-08-08T07:48:21.338Z,77.90
2022-08-08T07:50:54.871Z,79.10
2022-08-08T07:54:00.982Z,79.20
2022-08-08T07:56:17.720Z,78.10
2022-08-08T07:59:04.244Z,77.20
2022-08-08T08:02:34.282Z,75.10
2022-08-08T08:04:30.124Z,75.10
2022-08-08T08:07:00.418Z,75.50
2022-08-08T08:09:35.725Z,74.90
2022-08-08T08:12:04.131Z,75.70
2022-08-08T08:14:37.544Z,75.20
2022-08-08T08:17:08.572Z,75.60
2022-08-08T08:19:45.454Z,74.30
2022-08-08T08:22:14.945Z,74.80
2022-08-08T08:24:46.724Z,74.50
2022-08-08T08:27:14.653Z,74.90
2022-08-08T08:29:45.381Z,75.50
2022-08-08T08:32:31.591Z,74.20
2022-08-08T08:35:06.579Z,73.30
2022-08-08T08:37:53.043Z,72.30
2022-08-08T08:40:22.899Z,72.30
2022-08-08T08:42:53.352Z,72.80
2022-08-08T08:45:23.663Z,72.40
2022-08-08T08:47:58.221Z,72.20
2022-08-08T08:50:33.258Z,71.10
2022-08-08T08:53:28.016Z,71.10
2022-08-08T08:55:55.925Z,71.30
2022-08-08T08:58:32.593Z,71.70
2022-08-08T09:01:08.988Z,71.70
2022-08-08T09:03:47.008Z,71.60
2022-08-08T09:06:28.266Z,71.50
2022-08-08T09:09:02.893Z,69.60
2022-08-08T09:11:33.405Z,70.00
2022-08-08T09:14:01.547Z,69.40
2022-08-08T09:16:32.664Z,68.50
2022-08-08T09:19:00.833Z,69.50
2022-08-08T09:21:57.973Z,68.70
2022-08-08T09:24:19.570Z,68.60
2022-08-08T09:26:51.605Z,68.10
2022-08-08T09:29:22.291Z,69.00
2022-08-08T09:31:56.468Z,68.20
2022-08-08T09:34:32.390Z,68.10
2022-08-08T09:37:59.038Z,68.50
2022-08-08T09:39:55.576Z,69.40
2022-08-08T09:42:26.003Z,67.90
2022-08-08T09:45:08.115Z,67.40
2022-08-08T09:48:09.796Z,67.30
2022-08-08T09:50:32.470Z,66.70
2022-08-08T09:53:23.441Z,65.70
2022-08-08T09:56:04.385Z,66.10
2022-08-08T09:58:41.544Z,65.30
2022-08-08T10:01:15.045Z,65.60
2022-08-08T10:04:02.308Z,66.30
2022-08-08T10:06:35.878Z,65.80
2022-08-08T10:09:08.329Z,66.20
2022-08-08T10:12:26.664Z,64.10
2022-08-08T10:14:38.279Z,63.60
2022-08-08T10:17:56.482Z,63.30
2022-08-08T10:19:59.843Z,62.80
2022-08-08T10:22:28.799Z,62.30
2022-08-08T10:25:04.604Z,63.30
2022-08-08T10:27:40.906Z,62.80
2022-08-08T10:30:16.208Z,61.80
2022-08-08T10:33:01.090Z,61.20
2022-08-08T10:36:08.164Z,61.40
2022-08-08T10:38:17.650Z,59.70
2022-08-08T10:40:51.386Z,61.00
2022-08-08T10:43:20.195Z,60.90
2022-08-08T10:45:55.527Z,60.50
2022-08-08T10:48:32.383Z,61.00
2022-08-08T10:51:11.848Z,60.20
2022-08-08T10:53:57.778Z,61.30
2022-08-08T10:56:35.153Z,59.90
2022-08-08T10:59:05.594Z,60.40
2022-08-08T11:01:34.919Z,59.50
2022-08-08T11:04:04.710Z,60.20
2022-08-08T11:06:34.699Z,59.50
2022-08-08T11:09:14.977Z,59.40
2022-08-08T11:12:06.499Z,58.90
2022-08-08T11:14:33.511Z,60.10
2022-08-08T11:17:03.995Z,59.30
2022-08-08T11:19:34.558Z,59.20
2022-08-08T11:22:04.309Z,60.00
2022-08-08T11:24:35.744Z,58.90
2022-08-08T11:27:10.577Z,59.30
2022-08-08T11:29:58.290Z,59.00
2022-08-08T11:32:38.250Z,58.50
2022-08-08T11:35:28.039Z,59.50
2022-08-08T11:38:36.241Z,59.50
2022-08-08T11:40:44.241Z,59.30
2022-08-08T11:43:17.781Z,58.50
2022-08-08T11:46:09.241Z,58.70
2022-08-08T11:48:34.405Z,58.00
2022-08-08T11:51:38.035Z,57.90
2022-08-08T11:53:59.197Z,57.70
2022-08-08T11:56:33.020Z,58.70
2022-08-08T11:59:10.981Z,57.90
2022-08-08T12:01:39.286Z,59.00
2022-08-08T12:04:09.004Z,57.50
2022-08-08T12:06:39.202Z,57.00
2022-08-08T12:09:08.807Z,56.80
2022-08-08T12:11:40.597Z,56.20
2022-08-08T12:14:11.716Z,56.40
2022-08-08T12:16:49.197Z,57.10
2022-08-08T12:19:21.904Z,56.90
2022-08-08T12:22:13.181Z,56.80
2022-08-08T12:24:53.964Z,57.30
2022-08-08T12:27:26.596Z,56.40
2022-08-08T12:29:58.951Z,57.50
2022-08-08T12:32:26.883Z,55.80
2022-08-08T12:35:13.707Z,55.70
2022-08-08T12:38:01.048Z,54.90
2022-08-08T12:40:37.772Z,55.60
2022-08-08T12:43:32.693Z,55.20
2022-08-08T12:46:19.066Z,54.90
2022-08-08T12:49:21.854Z,55.70
2022-08-08T12:51:50.123Z,56.00
2022-08-08T12:54:27.913Z,55.20
2022-08-08T12:56:56.935Z,55.40
2022-08-08T12:59:27.226Z,55.20
2022-08-08T13:02:08.274Z,54.90
2022-08-08T13:04:37.380Z,54.40
2022-08-08T13:07:06.555Z,54.50
2022-08-08T13:10:00.555Z,54.30
2022-08-08T13:12:28.686Z,53.80
2022-08-08T13:14:57.995Z,54.90
2022-08-08T13:18:09.989Z,54.50
2022-08-08T13:20:18.553Z,54.10
2022-08-08T13:22:46.740Z,53.70
2022-08-08T13:25:15.999Z,53.20
2022-08-08T13:27:45.054Z,52.50
2022-08-08T13:30:21.234Z,52.70
2022-08-08T13:32:57.087Z,53.00
2022-08-08T13:35:29.452Z,53.40
2022-08-08T13:38:08.732Z,54.10
2022-08-08T13:40:44.890Z,53.70
2022-08-08T13:43:13.845Z,52.40
2022-08-08T13:45:47.395Z,53.20
2022-08-08T13:48:17.468Z,53.80
2022-08-08T13:50:57.800Z,53.90
2022-08-08T13:53:53.139Z,54.40
2022-08-08T13:56:31.753Z,53.90
2022-08-08T13:58:59.527Z,52.80
2022-08-08T14:01:41.829Z,53.00
2022-08-08T14:04:21.364Z,52.70
2022-08-08T14:06:49.748Z,52.70
2022-08-08T14:09:24.308Z,52.50
2022-08-08T14:11:58.748Z,52.40
2022-08-08T14:14:35.380Z,52.20
2022-08-08T14:17:03.600Z,52.20
2022-08-08T14:19:58.202Z,52.10
2022-08-08T14:22:25.816Z,52.10
2022-08-08T14:24:54.545Z,52.10
2022-08-08T14:27:28.808Z,52.50
2022-08-08T14:29:58.053Z,52.90
2022-08-08T14:32:30.033Z,52.70
2022-08-08T14:35:04.423Z,52.30
2022-08-08T14:37:42.794Z,52.30
2022-08-08T14:40:21.715Z,52.30
2022-08-08T14:42:56.748Z,52.80
2022-08-08T14:45:33.184Z,53.40
2022-08-08T14:48:16.588Z,52.70
2022-08-08T14:51:04.689Z,52.40
2022-08-08T14:53:37.264Z,52.50
2022-08-08T14:56:25.256Z,52.00
2022-08-08T14:58:54.246Z,52.50
2022-08-08T15:01:27.870Z,52.20
2022-08-08T15:04:08.756Z,52.60
2022-08-08T15:06:42.294Z,51.80
2022-08-08T15:09:11.325Z,52.40
2022-08-08T15:11:46.230Z,53.00
2022-08-08T15:14:15.014Z,53.40
2022-08-08T15:16:44.478Z,52.40
2022-08-08T15:19:14.932Z,52.10
2022-08-08T15:21:44.878Z,52.20
2022-08-08T15:24:14.262Z,52.70
2022-08-08T15:26:46.822Z,53.30
2022-08-08T15:29:22.642Z,53.10
2022-08-08T15:32:18.050Z,53.20
2022-08-08T15:34:40.341Z,53.10
2022-08-08T15:37:09.924Z,52.60
2022-08-08T15:39:40.774Z,52.60
2022-08-08T15:42:13.338Z,52.40
2022-08-08T15:44:52.402Z,52.60
2022-08-08T15:47:22.442Z,52.50
2022-08-08T15:49:50.765Z,52.80
2022-08-08T15:52:22.459Z,52.50
2022-08-08T15:54:52.527Z,52.40
2022-08-08T15:57:20.918Z,52.80
2022-08-08T16:00:05.316Z,53.00
2022-08-08T16:02:37.155Z,53.10
2022-08-08T16:05:14.269Z,52.90
2022-08-08T16:07:51.416Z,53.20
2022-08-08T16:13:15.849Z,53.50
2022-08-08T16:13:34.499Z,53.70
2022-08-08T16:16:09.652Z,53.60
2022-08-08T16:18:53.345Z,54.20
2022-08-08T16:21:27.125Z,53.60
2022-08-08T16:23:57.154Z,54.10
2022-08-08T16:26:33.678Z,53.90
2022-08-08T16:29:03.592Z,53.70
2022-08-08T16:31:37.381Z,55.00
2022-08-08T16:34:05.598Z,54.60
2022-08-08T16:36:34.288Z,54.40
2022-08-08T16:39:17.029Z,54.60
2022-08-08T16:41:53.003Z,55.20
2022-08-08T16:44:27.767Z,55.00
2022-08-08T16:47:16.595Z,55.20
2022-08-08T16:49:44.377Z,55.30
2022-08-08T16:55:06.469Z,55.10
2022-08-08T16:55:42.507Z,54.60
2022-08-08T16:58:15.684Z,55.10
2022-08-08T17:00:37.233Z,55.40
2022-08-08T17:03:05.059Z,55.30
2022-08-08T17:05:44.643Z,55.10
2022-08-08T17:08:13.916Z,55.30
2022-08-08T17:10:57.608Z,55.70
2022-08-08T17:13:27.588Z,55.70
2022-08-08T17:16:15.244Z,56.20
2022-08-08T17:18:43.403Z,55.90
2022-08-08T17:21:13.851Z,56.40
2022-08-08T17:24:02.038Z,56.50
2022-08-08T17:26:31.159Z,57.00
2022-08-08T17:29:04.203Z,56.80
2022-08-08T17:31:45.418Z,56.80
2022-08-08T17:34:37.499Z,57.40
2022-08-08T17:37:09.006Z,57.60
2022-08-08T17:40:04.297Z,57.70
2022-08-08T17:42:28.434Z,58.00
2022-08-08T17:44:58.291Z,57.70
2022-08-08T17:47:27.987Z,57.60
2022-08-08T17:50:01.280Z,57.90
2022-08-08T17:52:31.188Z,57.70
2022-08-08T17:55:05.710Z,58.20
2022-08-08T17:57:50.946Z,58.40
2022-08-08T18:00:21.667Z,59.20
2022-08-08T18:03:07.421Z,59.50
2022-08-08T18:05:48.242Z,58.90
2022-08-08T18:08:24.521Z,59.70
2022-08-08T18:11:11.695Z,59.60
2022-08-08T18:13:43.984Z,59.80
2022-08-08T18:16:20.371Z,60.20
2022-08-08T18:18:54.039Z,60.20
2022-08-08T18:21:59.216Z,60.60
2022-08-08T18:24:19.134Z,61.50
2022-08-08T18:26:54.325Z,61.40
2022-08-08T18:29:30.195Z,61.00
2022-08-08T18:32:03.633Z,61.30
2022-08-08T18:34:32.811Z,61.80
2022-08-08T18:37:02.903Z,61.40
2022-08-08T18:39:34.660Z,61.40
2022-08-08T18:42:04.497Z,61.90
2022-08-08T18:44:35.774Z,62.00
2022-08-08T18:47:04.551Z,62.10
2022-08-08T18:49:57.946Z,62.20
2022-08-08T18:52:22.576Z,62.20
2022-08-08T18:55:00.935Z,62.40
2022-08-08T18:57:41.083Z,62.90
2022-08-08T19:00:16.732Z,62.70
2022-08-08T19:02:55.362Z,62.50
2022-08-08T19:05:30.686Z,62.90
2022-08-08T19:08:02.992Z,63.50
2022-08-08T19:10:32.029Z,63.20
2022-08-08T19:13:00.372Z,63.00
2022-08-08T19:15:34.244Z,63.00
2022-08-08T19:18:32.283Z,63.40
2022-08-08T19:20:50.819Z,63.80
2022-08-08T19:23:21.631Z,63.80
2022-08-08T19:26:01.684Z,63.90
2022-08-08T19:28:38.640Z,64.10
2022-08-08T19:31:10.547Z,64.60
2022-08-08T19:34:04.350Z,64.50
2022-08-08T19:36:28.645Z,64.80
2022-08-08T19:38:56.413Z,65.10
2022-08-08T19:41:27.740Z,65.30
2022-08-08T19:44:04.124Z,65.60
2022-08-08T19:46:42.438Z,65.80
2022-08-08T19:49:13.177Z,66.00
2022-08-08T19:51:43.286Z,66.00
2022-08-08T19:54:12.386Z,66.20
2022-08-08T19:56:41.445Z,66.30
2022-08-08T19:59:10.001Z,66.30
2022-08-08T20:02:01.065Z,66.70
2022-08-08T20:04:27.438Z,66.70
2022-08-08T20:06:56.870Z,66.70
2022-08-08T20:09:25.080Z,67.30
2022-08-08T20:11:57.726Z,67.60
2022-08-08T20:14:33.406Z,67.20
2022-08-08T20:17:03.063Z,67.80
2022-08-08T20:19:34.344Z,67.50
2022-08-08T20:22:12.906Z,67.60
2022-08-08T20:24:48.170Z,67.80
2022-08-08T20:27:20.392Z,67.90
2022-08-08T20:30:00.666Z,68.00
2022-08-08T20:32:29.598Z,68.10
2022-08-08T20:35:00.767Z,68.30
2022-08-08T20:37:46.707Z,68.20
2022-08-08T20:40:17.921Z,67.90
2022-08-08T20:43:01.372Z,68.30
2022-08-08T20:45:55.201Z,68.50
2022-08-08T20:48:21.488Z,68.50
2022-08-08T20:50:55.539Z,68.80
2022-08-08T20:53:59.966Z,68.70
2022-08-08T20:56:11.644Z,68.60
2022-08-08T20:58:47.536Z,68.80
2022-08-08T21:01:19.811Z,68.80
2022-08-08T21:03:55.675Z,68.60
2022-08-08T21:06:52.809Z,68.60
2022-08-08T21:09:16.469Z,69.00
2022-08-08T21:11:51.606Z,68.70
2022-08-08T21:14:30.393Z,68.80
2022-08-08T21:17:01.653Z,68.70
2022-08-08T21:19:44.133Z,68.70
2022-08-08T21:22:15.426Z,68.80
2022-08-08T21:24:52.814Z,68.90
2022-08-08T21:28:05.751Z,68.90
2022-08-08T21:30:17.877Z,69.20
2022-08-08T21:32:52.242Z,69.50
2022-08-08T21:36:18.731Z,69.90
2022-08-08T21:38:17.232Z,70.40
2022-08-08T21:40:54.796Z,70.50
2022-08-08T21:43:24.440Z,70.90
2022-08-08T21:48:04.028Z,71.20
2022-08-08T21:48:41.541Z,71.40
2022-08-08T21:51:13.340Z,71.40
2022-08-08T21:54:32.949Z,71.60
2022-08-08T21:56:42.162Z,71.50
2022-08-08T21:59:11.592Z,71.90
2022-08-08T22:01:43.444Z,72.00
2022-08-08T22:04:19.810Z,72.20
2022-08-08T22:06:47.565Z,72.30
2022-08-08T22:09:16.682Z,72.40
2022-08-08T22:11:51.465Z,72.70
2022-08-08T22:14:32.569Z,72.80
2022-08-08T22:17:00.801Z,72.90
2022-08-08T22:19:30.407Z,73.00
2022-08-08T22:22:18.384Z,73.10
2022-08-08T22:24:47.676Z,73.20
2022-08-08T22:27:15.727Z,73.20
2022-08-08T22:30:04.505Z,73.20
2022-08-08T22:32:32.653Z,73.20
2022-08-08T22:35:00.469Z,73.10
2022-08-08T22:37:53.745Z,73.50
2022-08-08T22:40:21.973Z,73.30
2022-08-08T22:42:49.750Z,73.60
2022-08-08T22:45:17.711Z,73.50
2022-08-08T22:47:47.244Z,73.70
2022-08-08T22:50:25.456Z,73.60
2022-08-08T22:53:22.342Z,73.80
2022-08-08T22:55:58.553Z,74.10
2022-08-08T22:58:31.266Z,74.10
2022-08-08T23:01:01.190Z,74.10
2022-08-08T23:03:34.428Z,74.20
2022-08-08T23:06:17.690Z,74.30
2022-08-08T23:08:54.292Z,74.50
2022-08-08T23:11:31.464Z,74.50
2022-08-08T23:14:13.368Z,74.60
2022-08-08T23:16:43.343Z,74.70
2022-08-08T23:19:12.148Z,74.80
2022-08-08T23:21:39.941Z,75.00
2022-08-08T23:24:07.784Z,75.10
2022-08-08T23:26:38.229Z,75.20
2022-08-08T23:29:11.070Z,75.10
2022-08-08T23:31:41.729Z,75.40
2022-08-08T23:34:17.630Z,75.70
2022-08-08T23:36:47.044Z,75.40
2022-08-08T23:39:14.772Z,75.50
2022-08-08T23:41:47.054Z,75.60
2022-08-08T23:44:18.642Z,75.70
2022-08-08T23:49:03.470Z,76.00
2022-08-08T23:49:34.679Z,76.00
2022-08-08T23:52:05.977Z,76.40
2022-08-08T23:54:41.729Z,76.30
2022-08-08T23:57:26.869Z,76.40
